createdAt,value
2018-10-19T00:01:08.553Z,24.80
2018-10-19T00:03:36.518Z,20.87
2018-10-19T00:06:04.733Z,20.53
2018-10-19T00:08:32.801Z,26.07
2018-10-19T00:11:01.113Z,22.77
2018-10-19T00:13:29.238Z,25.53
2018-10-19T00:15:57.396Z,20.50
2018-10-19T00:18:25.399Z,20.97
2018-10-19T00:20:53.345Z,26.67
2018-10-19T00:23:21.354Z,24.73
2018-10-19T00:25:49.246Z,27.90
2018-10-19T00:28:18.182Z,26.60
2018-10-19T00:30:46.117Z,23.93
2018-10-19T00:33:14.101Z,27.30
2018-10-19T00:35:42.545Z,20.90
2018-10-19T00:38:10.721Z,27.60
2018-10-19T00:40:38.737Z,26.13
2018-10-19T00:43:06.681Z,23.33
2018-10-19T00:45:40.574Z,22.23
2018-10-19T00:48:13.459Z,23.80
2018-10-19T00:50:41.573Z,23.90
2018-10-19T00:53:10.090Z,22.17
2018-10-19T00:55:38.275Z,22.60
2018-10-19T00:58:06.363Z,24.30
2018-10-19T01:00:35.367Z,21.37
2018-10-19T01:03:03.490Z,25.97
2018-10-19T01:05:31.689Z,26.13
2018-10-19T01:08:00.131Z,26.03
2018-10-19T01:10:28.307Z,26.77
2018-10-19T01:12:57.458Z,23.73
2018-10-19T01:15:26.675Z,28.03
2018-10-19T01:17:54.828Z,26.50
2018-10-19T01:20:22.828Z,25.87
2018-10-19T01:22:50.770Z,24.00
2018-10-19T01:25:18.790Z,23.80
2018-10-19T01:27:46.633Z,26.27
2018-10-19T01:30:14.591Z,24.30
2018-10-19T01:32:42.474Z,25.30
2018-10-19T01:35:11.531Z,24.33
2018-10-19T01:37:39.539Z,27.27
2018-10-19T01:40:09.329Z,26.90
2018-10-19T01:42:37.476Z,28.53
2018-10-19T01:45:06.681Z,25.77
2018-10-19T01:47:34.687Z,28.73
2018-10-19T01:50:02.877Z,26.90
2018-10-19T01:52:30.825Z,27.77
2018-10-19T01:54:58.923Z,32.17
2018-10-19T01:57:26.831Z,33.20
2018-10-19T01:59:54.758Z,27.80
2018-10-19T02:02:22.775Z,29.47
2018-10-19T02:04:50.865Z,31.03
2018-10-19T02:07:18.912Z,28.60
2018-10-19T02:09:46.984Z,33.63
2018-10-19T02:12:21.322Z,34.63
2018-10-19T02:14:49.223Z,33.03
2018-10-19T02:17:17.211Z,29.77
2018-10-19T02:19:45.330Z,29.47
2018-10-19T02:22:13.413Z,32.90
2018-10-19T02:24:41.368Z,33.03
2018-10-19T02:27:09.441Z,31.70
2018-10-19T02:29:37.502Z,33.67
2018-10-19T02:32:05.566Z,35.17
2018-10-19T02:34:33.553Z,40.43
2018-10-19T02:37:02.226Z,35.63
2018-10-19T02:39:30.355Z,31.47
2018-10-19T02:41:58.328Z,38.97
2018-10-19T02:44:26.610Z,33.93
2018-10-19T02:46:54.501Z,40.97
2018-10-19T02:49:22.427Z,39.27
2018-10-19T02:51:50.300Z,36.57
2018-10-19T02:54:18.338Z,37.30
2018-10-19T02:56:46.250Z,34.27
2018-10-19T02:59:14.214Z,39.33
2018-10-19T03:01:42.285Z,41.70
2018-10-19T03:04:10.227Z,43.60
2018-10-19T03:06:38.183Z,43.23
2018-10-19T03:09:09.197Z,42.47
2018-10-19T03:11:44.087Z,43.70
2018-10-19T03:14:16.092Z,43.20
2018-10-19T03:16:44.414Z,43.87
2018-10-19T03:19:12.860Z,39.33
2018-10-19T03:21:41.171Z,41.77
2018-10-19T03:24:09.327Z,40.50
2018-10-19T03:26:37.750Z,43.00
2018-10-19T03:29:05.903Z,43.07
2018-10-19T03:31:33.902Z,38.80
2018-10-19T03:34:02.029Z,39.93
2018-10-19T03:36:29.962Z,32.87
2018-10-19T03:38:57.991Z,39.07
2018-10-19T03:41:25.990Z,36.10
2018-10-19T03:43:54.039Z,37.70
2018-10-19T03:46:21.996Z,38.87
2018-10-19T03:48:50.150Z,38.07
2018-10-19T03:51:18.202Z,38.03
2018-10-19T03:53:46.129Z,35.00
2018-10-19T03:56:14.152Z,36.00
2018-10-19T03:58:42.729Z,37.73
2018-10-19T04:01:10.813Z,34.13
2018-10-19T04:03:38.831Z,31.47
2018-10-19T04:06:06.962Z,36.07
2018-10-19T04:08:35.433Z,38.03
2018-10-19T04:11:03.598Z,37.17
2018-10-19T04:13:31.493Z,38.10
2018-10-19T04:15:59.866Z,41.07
2018-10-19T04:18:28.078Z,40.47
2018-10-19T04:20:56.285Z,42.80
2018-10-19T04:23:24.318Z,42.77
2018-10-19T04:25:52.256Z,38.87
2018-10-19T04:28:20.218Z,49.90
2018-10-19T04:30:48.151Z,43.37
2018-10-19T04:33:16.149Z,46.70
2018-10-19T04:35:44.080Z,40.77
2018-10-19T04:38:11.997Z,44.73
2018-10-19T04:40:40.038Z,48.17
2018-10-19T04:43:08.364Z,38.77
2018-10-19T04:45:36.378Z,43.50
2018-10-19T04:48:05.133Z,49.20
2018-10-19T04:50:33.574Z,35.40
2018-10-19T04:53:01.650Z,42.70
2018-10-19T04:55:29.575Z,49.23
2018-10-19T04:57:57.854Z,39.20
2018-10-19T05:00:25.774Z,43.17
2018-10-19T05:02:54.216Z,42.97
2018-10-19T05:05:22.815Z,33.03
2018-10-19T05:07:50.819Z,44.33
2018-10-19T05:10:18.777Z,35.73
2018-10-19T05:12:46.653Z,43.50
2018-10-19T05:15:14.629Z,39.30
2018-10-19T05:17:42.867Z,41.43
2018-10-19T05:20:11.930Z,48.23
2018-10-19T05:22:39.942Z,38.70
2018-10-19T05:25:09.908Z,32.37
2018-10-19T05:27:38.003Z,32.33
2018-10-19T05:30:08.014Z,31.13
2018-10-19T05:32:36.192Z,33.87
2018-10-19T05:35:04.898Z,36.63
2018-10-19T05:37:32.907Z,37.80
2018-10-19T05:40:01.279Z,40.77
2018-10-19T05:42:29.633Z,41.73
2018-10-19T05:44:57.586Z,35.87
2018-10-19T05:47:25.591Z,35.97
2018-10-19T05:49:53.703Z,43.83
2018-10-19T05:52:21.681Z,43.97
2018-10-19T05:54:49.763Z,48.13
2018-10-19T05:57:17.782Z,49.17
2018-10-19T05:59:49.460Z,49.77
2018-10-19T06:02:17.633Z,46.87
2018-10-19T06:04:45.562Z,58.27
2018-10-19T06:07:13.634Z,55.60
2018-10-19T06:09:44.488Z,53.50
2018-10-19T06:12:14.154Z,53.50
2018-10-19T06:14:44.138Z,49.00
2018-10-19T06:17:16.294Z,41.23
2018-10-19T06:19:44.327Z,43.87
2018-10-19T06:22:12.963Z,42.00
2018-10-19T06:24:40.942Z,46.47
2018-10-19T06:27:09.470Z,54.87
2018-10-19T06:29:37.340Z,41.53
2018-10-19T06:32:05.960Z,43.53
2018-10-19T06:34:39.425Z,49.13
2018-10-19T06:37:07.486Z,40.30
2018-10-19T06:39:35.710Z,47.77
2018-10-19T06:42:03.789Z,41.90
2018-10-19T06:44:31.819Z,43.80
2018-10-19T06:46:59.881Z,45.30
2018-10-19T06:49:28.198Z,46.23
2018-10-19T06:51:56.197Z,42.80
2018-10-19T06:54:24.258Z,39.57
2018-10-19T06:56:52.849Z,43.50
2018-10-19T06:59:21.078Z,38.70
2018-10-19T07:02:04.736Z,39.43
2018-10-19T07:04:32.837Z,40.87
2018-10-19T07:07:00.961Z,38.57
2018-10-19T07:09:28.912Z,36.93
2018-10-19T07:11:56.937Z,42.23
2018-10-19T07:14:25.521Z,46.80
2018-10-19T07:16:53.644Z,39.47
2018-10-19T07:19:21.630Z,35.80
2018-10-19T07:21:49.610Z,39.20
2018-10-19T07:24:17.710Z,37.00
2018-10-19T07:26:53.573Z,37.10
2018-10-19T07:32:01.166Z,39.07
2018-10-19T07:34:29.212Z,45.00
2018-10-19T07:36:57.282Z,40.77
2018-10-19T07:39:26.253Z,37.43
2018-10-19T07:41:59.902Z,39.83
2018-10-19T07:44:28.022Z,36.67
2018-10-19T07:46:56.454Z,49.50
2018-10-19T07:49:24.420Z,41.33
2018-10-19T07:51:52.594Z,37.70
2018-10-19T07:54:20.671Z,38.23
2018-10-19T07:56:48.610Z,42.13
2018-10-19T07:59:16.938Z,43.87
2018-10-19T08:01:44.895Z,41.30
2018-10-19T08:04:13.007Z,37.00
2018-10-19T08:06:40.938Z,40.73
2018-10-19T08:09:09.955Z,39.97
2018-10-19T08:11:38.081Z,30.50
2018-10-19T08:14:06.304Z,36.53
2018-10-19T08:16:39.520Z,37.93
2018-10-19T08:19:07.624Z,40.53
2018-10-19T08:21:35.569Z,40.83
2018-10-19T08:24:03.695Z,34.63
2018-10-19T08:26:31.689Z,38.73
2018-10-19T08:28:59.860Z,44.37
2018-10-19T08:31:27.907Z,37.33
2018-10-19T08:33:56.314Z,37.67
2018-10-19T08:36:24.286Z,35.07
2018-10-19T08:38:52.458Z,34.57
2018-10-19T08:41:20.496Z,36.13
2018-10-19T08:43:48.531Z,38.20
2018-10-19T08:46:21.951Z,42.07
2018-10-19T08:48:50.051Z,36.13
2018-10-19T08:51:18.253Z,37.07
2018-10-19T08:53:46.388Z,35.17
2018-10-19T08:56:14.264Z,41.73
2018-10-19T08:58:42.279Z,36.73
2018-10-19T09:01:10.389Z,37.60
2018-10-19T09:03:38.556Z,31.07
2018-10-19T09:06:06.679Z,37.03
2018-10-19T09:08:34.759Z,32.47
2018-10-19T09:11:04.567Z,37.07
2018-10-19T09:13:32.686Z,27.47
2018-10-19T09:16:14.960Z,30.73
2018-10-19T09:18:43.236Z,35.97
2018-10-19T09:21:11.349Z,34.43
2018-10-19T09:23:39.320Z,26.33
2018-10-19T09:26:08.927Z,33.67
2018-10-19T09:28:37.088Z,37.90
2018-10-19T09:31:05.656Z,28.03
2018-10-19T09:33:33.839Z,36.43
2018-10-19T09:36:02.594Z,32.70
2018-10-19T09:38:30.877Z,27.97
2018-10-19T09:41:00.129Z,30.13
2018-10-19T09:43:28.072Z,33.97
2018-10-19T09:45:57.090Z,30.33
2018-10-19T09:48:25.014Z,29.60
2018-10-19T09:50:53.613Z,27.17
2018-10-19T09:53:21.932Z,34.93
2018-10-19T09:55:49.966Z,31.30
2018-10-19T09:58:19.656Z,26.67
2018-10-19T10:00:54.081Z,30.97
2018-10-19T10:03:22.241Z,28.20
2018-10-19T10:05:50.218Z,29.67
2018-10-19T10:08:18.233Z,26.07
2018-10-19T10:10:46.271Z,29.87
2018-10-19T10:13:14.367Z,28.17
2018-10-19T10:15:42.499Z,27.50
2018-10-19T10:18:10.952Z,27.70
2018-10-19T10:20:38.996Z,37.65
2018-10-19T10:23:07.087Z,25.27
2018-10-19T10:25:35.128Z,23.73
2018-10-19T10:28:03.451Z,23.83
2018-10-19T10:30:31.488Z,26.30
2018-10-19T10:32:59.603Z,24.03
2018-10-19T10:35:27.623Z,22.67
2018-10-19T10:37:55.854Z,25.33
2018-10-19T10:40:23.867Z,22.93
2018-10-19T10:42:51.969Z,22.70
2018-10-19T10:45:20.070Z,24.33
2018-10-19T10:47:48.067Z,26.87
2018-10-19T10:50:16.140Z,23.37
2018-10-19T10:52:48.739Z,21.57
2018-10-19T10:55:17.106Z,22.93
2018-10-19T10:57:45.903Z,21.07
2018-10-19T11:00:13.990Z,21.90
2018-10-19T11:02:42.114Z,21.37
2018-10-19T11:05:10.081Z,22.90
2018-10-19T11:07:49.885Z,24.63
2018-10-19T11:10:17.861Z,28.10
2018-10-19T11:12:45.987Z,22.13
2018-10-19T11:15:13.960Z,20.20
2018-10-19T11:17:41.924Z,16.40
2018-10-19T11:20:10.500Z,20.47
2018-10-19T11:22:38.476Z,14.97
2018-10-19T11:25:06.800Z,16.53
2018-10-19T11:27:35.408Z,21.17
2018-10-19T11:30:10.905Z,17.07
2018-10-19T11:32:39.250Z,16.67
2018-10-19T11:35:07.559Z,19.07
2018-10-19T11:37:35.524Z,18.00
2018-10-19T11:40:27.555Z,20.07
2018-10-19T11:42:56.131Z,14.67
2018-10-19T11:45:25.849Z,16.43
2018-10-19T11:47:53.901Z,18.73
2018-10-19T11:50:22.174Z,13.53
2018-10-19T11:52:50.903Z,14.47
2018-10-19T11:55:18.892Z,10.77
2018-10-19T11:57:47.938Z,13.97
2018-10-19T12:00:54.886Z,11.27
2018-10-19T12:03:23.044Z,10.90
2018-10-19T12:05:51.403Z,12.60
2018-10-19T12:08:19.290Z,11.83
2018-10-19T12:10:47.307Z,21.87
2018-10-19T12:13:15.437Z,11.47
2018-10-19T12:15:43.372Z,13.87
2018-10-19T12:18:11.464Z,13.33
2018-10-19T12:20:39.557Z,11.97
2018-10-19T12:23:07.520Z,8.67
2018-10-19T12:25:35.479Z,13.77
2018-10-19T12:28:03.562Z,11.03
2018-10-19T12:30:31.712Z,13.37
2018-10-19T12:33:01.702Z,13.73
2018-10-19T12:35:29.679Z,12.83
2018-10-19T12:37:57.678Z,15.23
2018-10-19T12:40:25.883Z,14.20
2018-10-19T12:42:54.067Z,12.47
2018-10-19T12:46:31.802Z,14.43
2018-10-19T12:49:00.014Z,18.83
2018-10-19T12:51:27.955Z,12.80
2018-10-19T12:53:56.138Z,13.03
2018-10-19T12:56:24.211Z,13.10
2018-10-19T12:58:53.090Z,16.50
2018-10-19T13:01:21.860Z,11.90
2018-10-19T13:03:50.622Z,13.47
2018-10-19T13:06:20.448Z,12.40
2018-10-19T13:08:49.098Z,9.10
2018-10-19T13:11:17.027Z,16.23
2018-10-19T13:13:45.054Z,8.53
2018-10-19T13:16:13.146Z,16.87
2018-10-19T13:18:41.279Z,9.63
2018-10-19T13:21:10.432Z,10.97
2018-10-19T13:23:38.801Z,12.77
2018-10-19T13:26:48.832Z,9.87
2018-10-19T13:29:16.854Z,9.07
2018-10-19T13:31:44.834Z,10.23
2018-10-19T13:34:13.185Z,10.43
2018-10-19T13:36:41.207Z,11.77
2018-10-19T13:39:11.973Z,14.60
2018-10-19T13:41:40.517Z,20.27
2018-10-19T13:44:08.679Z,15.70
2018-10-19T13:46:36.753Z,12.43
2018-10-19T13:49:05.027Z,17.77
2018-10-19T13:51:33.460Z,16.57
2018-10-19T13:54:01.437Z,16.53
2018-10-19T13:56:29.750Z,11.87
2018-10-19T13:58:57.805Z,15.67
2018-10-19T14:01:25.853Z,13.70
2018-10-19T14:03:54.127Z,12.60
2018-10-19T14:06:22.228Z,18.37
2018-10-19T14:08:50.324Z,13.07
2018-10-19T14:11:19.311Z,15.47
2018-10-19T14:13:47.337Z,12.73
2018-10-19T14:16:15.326Z,15.90
2018-10-19T14:18:43.307Z,13.60
2018-10-19T14:21:11.753Z,13.67
2018-10-19T14:23:39.964Z,16.77
2018-10-19T14:26:07.962Z,11.23
2018-10-19T14:28:36.007Z,15.20
2018-10-19T14:31:04.243Z,12.37
2018-10-19T14:33:32.579Z,14.07
2018-10-19T14:36:00.948Z,14.83
2018-10-19T14:38:28.998Z,11.33
2018-10-19T14:40:57.466Z,16.80
2018-10-19T14:43:26.378Z,13.47
2018-10-19T14:45:55.299Z,13.70
2018-10-19T14:48:23.312Z,11.23
2018-10-19T14:50:51.277Z,10.97
2018-10-19T14:53:19.431Z,11.13
2018-10-19T14:55:47.496Z,9.50
2018-10-19T14:58:15.462Z,11.33
2018-10-19T15:00:43.507Z,12.23
2018-10-19T15:03:11.803Z,13.60
2018-10-19T15:05:39.808Z,12.20
2018-10-19T15:08:07.764Z,10.27
2018-10-19T15:10:36.102Z,10.90
2018-10-19T15:13:03.939Z,11.17
2018-10-19T15:15:31.981Z,14.13
2018-10-19T15:18:00.027Z,13.77
2018-10-19T15:20:27.978Z,14.20
2018-10-19T15:22:56.532Z,14.23
2018-10-19T15:25:24.463Z,17.47
2018-10-19T15:27:52.398Z,12.37
2018-10-19T15:30:21.256Z,12.83
2018-10-19T15:32:49.467Z,11.03
2018-10-19T15:35:24.403Z,16.87
2018-10-19T15:37:56.015Z,13.17
2018-10-19T15:40:24.211Z,13.03
2018-10-19T15:42:52.180Z,13.93
2018-10-19T15:45:20.349Z,12.33
2018-10-19T15:47:53.765Z,16.47
2018-10-19T15:50:34.670Z,20.23
2018-10-19T15:53:02.683Z,19.50
2018-10-19T15:55:30.737Z,16.77
2018-10-19T15:57:59.365Z,14.83
2018-10-19T16:00:27.689Z,19.83
2018-10-19T16:02:55.585Z,16.73
2018-10-19T16:05:23.578Z,16.77
2018-10-19T16:07:51.599Z,20.73
2018-10-19T16:10:19.831Z,19.37
2018-10-19T16:12:49.145Z,24.53
2018-10-19T16:15:17.141Z,23.10
2018-10-19T16:17:48.039Z,25.87
2018-10-19T16:20:16.106Z,24.57
2018-10-19T16:22:44.295Z,33.10
2018-10-19T16:25:12.409Z,17.33
2018-10-19T16:27:40.507Z,19.87
2018-10-19T16:30:10.066Z,19.17
2018-10-19T16:32:38.724Z,13.33
2018-10-19T16:35:07.051Z,15.23
2018-10-19T16:37:35.582Z,12.83
2018-10-19T16:40:03.774Z,18.93
2018-10-19T16:42:31.909Z,19.00
2018-10-19T16:45:00.255Z,19.73
2018-10-19T16:47:31.028Z,13.20
2018-10-19T16:49:59.053Z,20.37
2018-10-19T16:52:27.266Z,19.23
2018-10-19T16:54:55.142Z,17.87
2018-10-19T16:57:23.062Z,18.30
2018-10-19T16:59:50.992Z,32.00
2018-10-19T17:02:18.952Z,16.00
2018-10-19T17:04:47.836Z,21.37
2018-10-19T17:07:15.863Z,21.03
2018-10-19T17:09:43.939Z,15.37
2018-10-19T17:12:15.185Z,17.97
2018-10-19T17:14:43.167Z,19.93
2018-10-19T17:17:17.712Z,21.33
2018-10-19T17:19:45.751Z,16.10
2018-10-19T17:22:15.653Z,20.73
2018-10-19T17:24:47.246Z,22.37
2018-10-19T17:27:16.129Z,17.63
2018-10-19T17:29:44.479Z,24.47
2018-10-19T17:32:13.974Z,25.80
2018-10-19T17:34:42.806Z,20.70
2018-10-19T17:37:11.405Z,32.73
2018-10-19T17:39:41.480Z,41.73
2018-10-19T17:42:09.684Z,47.97
2018-10-19T17:44:37.612Z,49.50
2018-10-19T17:47:09.058Z,41.67
2018-10-19T17:49:37.216Z,43.73
2018-10-19T17:52:05.781Z,44.03
2018-10-19T17:54:39.174Z,46.73
2018-10-19T17:57:07.361Z,58.60
2018-10-19T17:59:35.206Z,46.40
2018-10-19T18:02:03.203Z,53.03
2018-10-19T18:04:31.250Z,49.90
2018-10-19T18:06:59.956Z,56.03
2018-10-19T18:09:29.587Z,37.63
2018-10-19T18:11:58.113Z,37.57
2018-10-19T18:14:27.456Z,34.27
2018-10-19T18:16:57.003Z,29.77
2018-10-19T18:19:28.141Z,31.77
2018-10-19T18:21:56.368Z,36.57
2018-10-19T18:24:24.290Z,32.77
2018-10-19T18:26:52.263Z,38.43
2018-10-19T18:29:20.196Z,30.83
2018-10-19T18:31:48.247Z,43.70
2018-10-19T18:34:16.240Z,33.27
2018-10-19T18:36:44.176Z,34.17
2018-10-19T18:39:13.561Z,41.23
2018-10-19T18:41:42.804Z,32.93
2018-10-19T18:44:11.125Z,28.57
2018-10-19T18:46:40.404Z,28.10
2018-10-19T18:49:08.839Z,23.80
2018-10-19T18:51:36.964Z,24.60
2018-10-19T18:54:05.373Z,20.67
2018-10-19T18:56:33.380Z,19.60
2018-10-19T18:59:01.454Z,20.13
2018-10-19T19:01:29.462Z,20.20
2018-10-19T19:03:57.515Z,19.17
2018-10-19T19:06:25.475Z,21.50
2018-10-19T19:08:53.491Z,22.03
2018-10-19T19:11:21.920Z,23.87
2018-10-19T19:13:50.350Z,19.90
2018-10-19T19:16:24.061Z,20.40
2018-10-19T19:18:52.088Z,21.03
2018-10-19T19:21:20.194Z,24.50
2018-10-19T19:23:53.670Z,20.83
2018-10-19T19:26:23.054Z,21.50
2018-10-19T19:28:50.978Z,20.80
2018-10-19T19:31:18.988Z,20.30
2018-10-19T19:33:52.380Z,25.17
2018-10-19T19:36:20.438Z,21.07
2018-10-19T19:38:48.382Z,22.60
2018-10-19T19:41:21.719Z,22.63
2018-10-19T19:43:49.697Z,21.13
2018-10-19T19:46:17.669Z,19.47
2018-10-19T19:48:51.064Z,25.50
2018-10-19T19:51:19.014Z,21.60
2018-10-19T19:53:46.939Z,18.93
2018-10-19T19:56:17.942Z,20.37
2018-10-19T19:58:46.146Z,20.60
2018-10-19T20:01:14.189Z,21.10
2018-10-19T20:03:42.267Z,18.67
2018-10-19T20:06:10.785Z,20.37
2018-10-19T20:08:38.941Z,26.47
2018-10-19T20:11:07.257Z,22.37
2018-10-19T20:13:35.264Z,25.07
2018-10-19T20:16:03.687Z,21.13
2018-10-19T20:18:31.636Z,28.33
2018-10-19T20:20:59.827Z,24.77
2018-10-19T20:23:27.810Z,24.67
2018-10-19T20:25:56.440Z,23.17
2018-10-19T20:28:25.503Z,23.03
2018-10-19T20:30:53.704Z,33.70
2018-10-19T20:33:21.852Z,23.87
2018-10-19T20:35:49.811Z,30.00
2018-10-19T20:38:17.739Z,26.00
2018-10-19T20:40:45.755Z,22.53
2018-10-19T20:43:13.713Z,22.70
2018-10-19T20:45:41.702Z,28.73
2018-10-19T20:48:09.663Z,27.83
2018-10-19T20:50:37.670Z,31.47
2018-10-19T20:53:05.625Z,23.60
2018-10-19T20:55:33.687Z,22.40
2018-10-19T20:58:02.039Z,26.67
2018-10-19T21:00:32.472Z,29.70
2018-10-19T21:03:00.555Z,25.07
2018-10-19T21:05:28.491Z,24.57
2018-10-19T21:07:57.021Z,25.53
2018-10-19T21:10:25.132Z,27.97
2018-10-19T21:12:53.282Z,29.80
2018-10-19T21:15:21.397Z,30.30
2018-10-19T21:17:49.591Z,27.87
2018-10-19T21:20:17.538Z,29.50
2018-10-19T21:22:45.547Z,29.93
2018-10-19T21:25:13.530Z,25.50
2018-10-19T21:27:41.597Z,26.73
2018-10-19T21:30:10.888Z,31.27
2018-10-19T21:32:38.879Z,25.60
2018-10-19T21:35:07.212Z,28.13
2018-10-19T21:37:35.209Z,28.50
2018-10-19T21:40:03.262Z,31.10
2018-10-19T21:42:31.209Z,32.33
2018-10-19T21:44:59.160Z,24.70
2018-10-19T21:47:27.253Z,25.80
2018-10-19T21:49:55.386Z,26.67
2018-10-19T21:52:23.418Z,26.70
2018-10-19T21:54:51.406Z,24.43
2018-10-19T21:57:19.408Z,27.63
2018-10-19T21:59:47.359Z,31.03
2018-10-19T22:02:15.362Z,23.10
2018-10-19T22:04:43.256Z,23.17
2018-10-19T22:07:11.221Z,23.33
2018-10-19T22:09:39.226Z,27.17
2018-10-19T22:12:07.243Z,30.97
2018-10-19T22:14:35.300Z,28.17
2018-10-19T22:17:03.509Z,30.60
2018-10-19T22:19:31.377Z,27.23
2018-10-19T22:21:59.741Z,28.43
2018-10-19T22:24:27.722Z,27.47
2018-10-19T22:26:56.120Z,31.33
2018-10-19T22:29:24.361Z,33.93
2018-10-19T22:31:52.291Z,31.30
2018-10-19T22:34:20.202Z,30.23
2018-10-19T22:36:48.169Z,29.17
2018-10-19T22:39:16.111Z,27.77
2018-10-19T22:41:44.469Z,33.27
2018-10-19T22:44:12.986Z,32.50
2018-10-19T22:46:40.991Z,35.00
2018-10-19T22:49:09.103Z,30.70
2018-10-19T22:51:37.318Z,32.67
2018-10-19T22:54:05.865Z,31.83
2018-10-19T22:56:33.889Z,31.37
2018-10-19T22:59:01.825Z,29.57
2018-10-19T23:01:29.761Z,28.20
2018-10-19T23:03:57.728Z,30.17
2018-10-19T23:06:25.747Z,30.97
2018-10-19T23:08:53.707Z,31.03
2018-10-19T23:11:21.736Z,30.73
2018-10-19T23:13:49.787Z,28.27
2018-10-19T23:16:17.714Z,29.33
2018-10-19T23:18:45.688Z,28.27
2018-10-19T23:21:13.672Z,29.73
2018-10-19T23:23:41.685Z,27.23
2018-10-19T23:26:09.589Z,30.33
2018-10-19T23:28:37.578Z,29.83
2018-10-19T23:31:05.703Z,31.60
2018-10-19T23:33:33.713Z,33.47
2018-10-19T23:36:01.938Z,29.07
2018-10-19T23:38:30.082Z,34.23
2018-10-19T23:40:58.231Z,26.23
2018-10-19T23:43:26.221Z,31.17
2018-10-19T23:45:54.708Z,28.40
2018-10-19T23:48:22.844Z,27.37
2018-10-19T23:50:50.848Z,28.93
2018-10-19T23:53:19.022Z,30.60
2018-10-19T23:55:47.247Z,29.70
2018-10-19T23:58:15.264Z,27.77
